createdAt,value
2022-12-16T00:00:50.000Z,262.65
2022-12-16T00:01:24.000Z,262.65
2022-12-16T00:02:48.000Z,262.65
2022-12-16T00:04:51.000Z,262.71
2022-12-16T00:06:16.000Z,262.71
2022-12-16T00:08:19.000Z,262.65
2022-12-16T00:09:44.000Z,262.59
2022-12-16T00:11:47.000Z,262.59
2022-12-16T00:13:11.000Z,262.59
2022-12-16T00:15:15.000Z,262.65
2022-12-16T00:16:39.000Z,262.65
2022-12-16T00:18:43.000Z,262.59
2022-12-16T00:20:07.000Z,262.59
2022-12-16T00:22:11.000Z,262.59
2022-12-16T00:23:35.000Z,262.52
2022-12-16T00:25:38.000Z,262.59
2022-12-16T00:27:03.000Z,262.52
2022-12-16T00:29:06.000Z,262.52
2022-12-16T00:30:31.000Z,262.59
2022-12-16T00:32:34.000Z,262.59
2022-12-16T00:35:17.000Z,262.65
2022-12-16T00:36:42.000Z,262.65
2022-12-16T00:38:45.000Z,262.59
2022-12-16T00:40:10.000Z,262.59
2022-12-16T00:42:13.000Z,262.52
2022-12-16T00:43:37.000Z,262.52
2022-12-16T00:45:41.000Z,262.52
2022-12-16T00:47:05.000Z,262.52
2022-12-16T00:49:09.000Z,262.59
2022-12-16T00:50:33.000Z,262.59
2022-12-16T00:52:37.000Z,262.59
2022-12-16T00:54:01.000Z,262.59
2022-12-16T00:56:04.000Z,262.59
2022-12-16T00:57:29.000Z,262.59
2022-12-16T00:59:32.000Z,262.59
2022-12-16T01:00:57.000Z,262.59
2022-12-16T01:03:00.000Z,262.46
2022-12-16T01:04:25.000Z,262.52
2022-12-16T01:06:28.000Z,262.46
2022-12-16T01:07:53.000Z,262.46
2022-12-16T01:09:56.000Z,262.4
2022-12-16T01:12:45.000Z,262.4
2022-12-16T01:14:10.000Z,262.4
2022-12-16T01:16:13.000Z,262.27
2022-12-16T01:17:38.000Z,262.34
2022-12-16T01:19:41.000Z,262.34
2022-12-16T01:21:06.000Z,262.34
2022-12-16T01:23:10.000Z,262.4
2022-12-16T01:24:34.000Z,262.4
2022-12-16T01:26:37.000Z,262.4
2022-12-16T01:28:02.000Z,262.4
2022-12-16T01:30:05.000Z,262.4
2022-12-16T01:31:30.000Z,262.4
2022-12-16T01:33:33.000Z,262.34
2022-12-16T01:34:58.000Z,262.34
2022-12-16T01:37:02.000Z,262.34
2022-12-16T01:38:26.000Z,262.34
2022-12-16T01:40:30.000Z,262.34
2022-12-16T01:41:54.000Z,262.34
2022-12-16T01:43:57.000Z,262.27
2022-12-16T01:45:22.000Z,262.27
2022-12-16T01:47:25.000Z,262.21
2022-12-16T01:50:14.000Z,262.21
2022-12-16T01:51:39.000Z,262.21
2022-12-16T01:53:42.000Z,262.27
2022-12-16T01:55:07.000Z,262.21
2022-12-16T01:57:10.000Z,262.21
2022-12-16T01:58:34.000Z,262.21
2022-12-16T02:00:38.000Z,262.27
2022-12-16T02:02:03.000Z,262.34
2022-12-16T02:04:07.000Z,262.34
2022-12-16T02:05:31.000Z,262.34
2022-12-16T02:07:34.000Z,262.34
2022-12-16T02:08:59.000Z,262.34
2022-12-16T02:11:02.000Z,262.4
2022-12-16T02:12:27.000Z,262.34
2022-12-16T02:14:30.000Z,262.4
2022-12-16T02:15:54.000Z,262.34
2022-12-16T02:17:58.000Z,262.27
2022-12-16T02:19:22.000Z,262.27
2022-12-16T02:21:26.000Z,262.15
2022-12-16T02:22:50.000Z,262.21
2022-12-16T02:24:53.000Z,262.21
2022-12-16T02:27:42.000Z,262.21
2022-12-16T02:29:07.000Z,262.21
2022-12-16T02:31:10.000Z,262.34
2022-12-16T02:32:35.000Z,262.27
2022-12-16T02:34:38.000Z,262.21
2022-12-16T02:36:02.000Z,262.21
2022-12-16T02:38:06.000Z,262.15
2022-12-16T02:39:30.000Z,262.21
2022-12-16T02:41:34.000Z,262.27
2022-12-16T02:42:58.000Z,262.4
2022-12-16T02:45:02.000Z,262.4
2022-12-16T02:46:26.000Z,262.46
2022-12-16T02:48:29.000Z,262.4
2022-12-16T02:49:54.000Z,262.4
2022-12-16T02:51:57.000Z,262.34
2022-12-16T02:53:22.000Z,262.34
2022-12-16T02:55:25.000Z,262.27
2022-12-16T02:56:49.000Z,262.27
2022-12-16T02:58:53.000Z,262.21
2022-12-16T03:00:17.000Z,262.15
2022-12-16T03:02:21.000Z,262.15
2022-12-16T03:05:10.000Z,262.21
2022-12-16T03:06:34.000Z,262.15
2022-12-16T03:08:38.000Z,262.21
2022-12-16T03:10:02.000Z,262.21
2022-12-16T03:12:06.000Z,262.21
2022-12-16T03:13:30.000Z,262.15
2022-12-16T03:15:34.000Z,262.15
2022-12-16T03:16:59.000Z,262.15
2022-12-16T03:19:02.000Z,262.15
2022-12-16T03:20:27.000Z,262.15
2022-12-16T03:22:30.000Z,262.15
2022-12-16T03:23:55.000Z,262.15
2022-12-16T03:25:58.000Z,262.09
2022-12-16T03:27:23.000Z,262.15
2022-12-16T03:29:26.000Z,262.02
2022-12-16T03:30:50.000Z,262.09
2022-12-16T03:32:54.000Z,262.09
2022-12-16T03:34:18.000Z,262.09
2022-12-16T03:36:22.000Z,262.02
2022-12-16T03:37:46.000Z,262.02
2022-12-16T03:39:50.000Z,261.96
2022-12-16T03:42:39.000Z,261.9
2022-12-16T03:44:03.000Z,261.96
2022-12-16T03:46:07.000Z,261.9
2022-12-16T03:47:31.000Z,261.84
2022-12-16T03:49:34.000Z,261.84
2022-12-16T03:50:59.000Z,261.84
2022-12-16T03:53:02.000Z,261.77
2022-12-16T03:54:27.000Z,261.71
2022-12-16T03:56:30.000Z,261.71
2022-12-16T03:57:54.000Z,261.71
2022-12-16T03:59:58.000Z,261.71
2022-12-16T04:01:22.000Z,261.65
2022-12-16T04:03:26.000Z,261.71
2022-12-16T04:04:51.000Z,261.71
2022-12-16T04:06:54.000Z,261.65
2022-12-16T04:08:18.000Z,261.71
2022-12-16T04:10:22.000Z,261.65
2022-12-16T04:11:46.000Z,261.65
2022-12-16T04:13:50.000Z,261.65
2022-12-16T04:15:14.000Z,261.65
2022-12-16T04:17:18.000Z,261.59
2022-12-16T04:20:07.000Z,261.59
2022-12-16T04:21:31.000Z,261.59
2022-12-16T04:23:34.000Z,261.59
2022-12-16T04:24:59.000Z,261.65
2022-12-16T04:27:02.000Z,261.65
2022-12-16T04:28:27.000Z,261.65
2022-12-16T04:30:30.000Z,261.65
2022-12-16T04:31:54.000Z,261.65
2022-12-16T04:33:58.000Z,261.65
2022-12-16T04:35:22.000Z,261.65
2022-12-16T04:37:26.000Z,261.65
2022-12-16T04:38:50.000Z,261.71
2022-12-16T04:40:54.000Z,261.71
2022-12-16T04:42:18.000Z,261.71
2022-12-16T04:44:22.000Z,261.71
2022-12-16T04:45:46.000Z,261.71
2022-12-16T04:47:50.000Z,261.65
2022-12-16T04:49:19.000Z,261.71
2022-12-16T04:51:23.000Z,261.77
2022-12-16T04:52:47.000Z,261.77
2022-12-16T04:54:51.000Z,261.71
2022-12-16T04:57:40.000Z,261.71
2022-12-16T04:59:04.000Z,261.71
2022-12-16T05:01:08.000Z,261.71
2022-12-16T05:02:32.000Z,261.84
2022-12-16T05:04:36.000Z,261.96
2022-12-16T05:06:00.000Z,261.9
2022-12-16T05:08:04.000Z,261.84
2022-12-16T05:09:28.000Z,261.77
2022-12-16T05:11:31.000Z,261.71
2022-12-16T05:12:56.000Z,261.71
2022-12-16T05:14:59.000Z,261.77
2022-12-16T05:16:24.000Z,261.71
2022-12-16T05:18:27.000Z,261.71
2022-12-16T05:19:52.000Z,261.65
2022-12-16T05:21:55.000Z,261.71
2022-12-16T05:23:19.000Z,261.71
2022-12-16T05:25:23.000Z,261.65
2022-12-16T05:26:47.000Z,261.65
2022-12-16T05:28:51.000Z,261.71
2022-12-16T05:30:15.000Z,261.71
2022-12-16T05:32:19.000Z,261.77
2022-12-16T05:35:08.000Z,261.77
2022-12-16T05:36:32.000Z,261.77
2022-12-16T05:38:35.000Z,261.77
2022-12-16T05:40:00.000Z,261.77
2022-12-16T05:42:03.000Z,261.71
2022-12-16T05:43:28.000Z,261.77
2022-12-16T05:45:32.000Z,261.71
2022-12-16T05:46:56.000Z,261.77
2022-12-16T05:49:00.000Z,261.65
2022-12-16T05:50:25.000Z,261.71
2022-12-16T05:52:28.000Z,261.84
2022-12-16T05:53:52.000Z,261.96
2022-12-16T05:55:56.000Z,261.9
2022-12-16T05:57:20.000Z,261.9
2022-12-16T05:59:24.000Z,261.9
2022-12-16T06:00:48.000Z,261.9
2022-12-16T06:02:52.000Z,261.9
2022-12-16T06:04:16.000Z,261.9
2022-12-16T06:06:20.000Z,261.9
2022-12-16T06:07:44.000Z,261.9
2022-12-16T06:09:48.000Z,261.9
2022-12-16T06:12:43.000Z,261.84
2022-12-16T06:14:08.000Z,261.84
2022-12-16T06:16:11.000Z,261.84
2022-12-16T06:17:36.000Z,261.84
2022-12-16T06:19:39.000Z,261.9
2022-12-16T06:21:04.000Z,261.9
2022-12-16T06:23:07.000Z,261.96
2022-12-16T06:24:32.000Z,261.96
2022-12-16T06:26:35.000Z,261.96
2022-12-16T06:27:59.000Z,261.96
2022-12-16T06:30:03.000Z,261.96
2022-12-16T06:31:27.000Z,262.09
2022-12-16T06:33:31.000Z,262.15
2022-12-16T06:34:56.000Z,262.15
2022-12-16T06:36:59.000Z,262.09
2022-12-16T06:38:23.000Z,262.21
2022-12-16T06:40:27.000Z,262.27
2022-12-16T06:41:51.000Z,262.27
2022-12-16T06:43:55.000Z,262.27
2022-12-16T06:45:19.000Z,262.46
2022-12-16T06:47:22.000Z,262.52
2022-12-16T06:50:11.000Z,262.52
2022-12-16T06:51:36.000Z,262.59
2022-12-16T06:53:39.000Z,262.52
2022-12-16T06:55:04.000Z,262.84
2022-12-16T06:57:07.000Z,263.02
2022-12-16T06:58:31.000Z,263.15
2022-12-16T07:00:35.000Z,263.15
2022-12-16T07:01:59.000Z,263.15
2022-12-16T07:04:03.000Z,263.27
2022-12-16T07:05:28.000Z,263.21
2022-12-16T07:07:31.000Z,263.52
2022-12-16T07:08:56.000Z,263.59
2022-12-16T07:10:59.000Z,263.59
2022-12-16T07:12:39.000Z,263.65
2022-12-16T07:14:42.000Z,263.71
2022-12-16T07:16:06.000Z,263.59
2022-12-16T07:18:10.000Z,263.96
2022-12-16T07:19:34.000Z,263.59
2022-12-16T07:21:38.000Z,263.71
2022-12-16T07:23:02.000Z,263.9
2022-12-16T07:25:14.000Z,264.02
2022-12-16T07:28:04.000Z,264.21
2022-12-16T07:29:36.000Z,264.27
2022-12-16T07:31:39.000Z,264.46
2022-12-16T07:33:04.000Z,264.46
2022-12-16T07:35:07.000Z,264.27
2022-12-16T07:36:31.000Z,264.4
2022-12-16T07:38:35.000Z,264.34
2022-12-16T07:39:59.000Z,264.21
2022-12-16T07:42:03.000Z,264.34
2022-12-16T07:43:27.000Z,264.65
2022-12-16T07:45:31.000Z,265.09
2022-12-16T07:46:55.000Z,265.46
2022-12-16T07:48:59.000Z,265.9
2022-12-16T07:50:23.000Z,265.71
2022-12-16T07:52:27.000Z,265.52
2022-12-16T07:53:51.000Z,265.34
2022-12-16T07:55:55.000Z,265.15
2022-12-16T07:57:19.000Z,265.34
2022-12-16T07:59:22.000Z,265.34
2022-12-16T08:00:47.000Z,265.4
2022-12-16T08:02:50.000Z,265.4
2022-12-16T08:05:42.000Z,265.34
2022-12-16T08:07:07.000Z,265.52
2022-12-16T08:09:10.000Z,266.27
2022-12-16T08:10:35.000Z,266.02
2022-12-16T08:12:38.000Z,265.96
2022-12-16T08:14:02.000Z,265.65
2022-12-16T08:16:06.000Z,265.77
2022-12-16T08:17:30.000Z,265.65
2022-12-16T08:19:34.000Z,265.84
2022-12-16T08:20:58.000Z,265.9
2022-12-16T08:23:02.000Z,265.77
2022-12-16T08:24:26.000Z,266.27
2022-12-16T08:26:29.000Z,266.02
2022-12-16T08:27:54.000Z,266.65
2022-12-16T08:29:57.000Z,266.46
2022-12-16T08:31:22.000Z,266.52
2022-12-16T08:33:25.000Z,266.4
2022-12-16T08:34:50.000Z,266.46
2022-12-16T08:36:53.000Z,266.52
2022-12-16T08:38:18.000Z,266.59
2022-12-16T08:40:21.000Z,266.65
2022-12-16T08:43:23.000Z,266.84
2022-12-16T08:44:47.000Z,266.96
2022-12-16T08:46:50.000Z,266.84
2022-12-16T08:48:15.000Z,266.77
2022-12-16T08:50:18.000Z,266.96
2022-12-16T08:51:43.000Z,267.02
2022-12-16T08:53:46.000Z,266.96
2022-12-16T08:55:11.000Z,266.9
2022-12-16T08:57:14.000Z,266.84
2022-12-16T08:58:39.000Z,266.9
2022-12-16T09:00:42.000Z,266.9
2022-12-16T09:02:07.000Z,266.96
2022-12-16T09:04:10.000Z,267.02
2022-12-16T09:05:35.000Z,267.46
2022-12-16T09:07:38.000Z,267.27
2022-12-16T09:09:02.000Z,267.27
2022-12-16T09:11:06.000Z,267.21
2022-12-16T09:12:30.000Z,267.21
2022-12-16T09:14:34.000Z,267.27
2022-12-16T09:15:58.000Z,267.27
2022-12-16T09:18:02.000Z,267.34
2022-12-16T09:20:51.000Z,267.34
2022-12-16T09:22:15.000Z,267.46
2022-12-16T09:24:19.000Z,267.59
2022-12-16T09:25:44.000Z,267.52
2022-12-16T09:27:47.000Z,267.77
2022-12-16T09:29:11.000Z,267.65
2022-12-16T09:31:15.000Z,267.77
2022-12-16T09:32:39.000Z,267.65
2022-12-16T09:34:43.000Z,267.77
2022-12-16T09:36:07.000Z,267.77
2022-12-16T09:38:11.000Z,267.84
2022-12-16T09:39:35.000Z,267.84
2022-12-16T09:41:39.000Z,267.84
2022-12-16T09:43:07.000Z,268.02
2022-12-16T09:45:10.000Z,268.15
2022-12-16T09:46:35.000Z,268.09
2022-12-16T09:48:38.000Z,267.9
2022-12-16T09:50:03.000Z,268.21
2022-12-16T09:52:06.000Z,268.21
2022-12-16T09:53:33.000Z,268.15
2022-12-16T09:55:38.000Z,268.21
2022-12-16T09:58:27.000Z,268.4
2022-12-16T09:59:51.000Z,268.34
2022-12-16T10:01:55.000Z,268.27
2022-12-16T10:03:20.000Z,268.27
2022-12-16T10:05:23.000Z,268.34
2022-12-16T10:06:48.000Z,268.4
2022-12-16T10:08:52.000Z,268.34
2022-12-16T10:10:16.000Z,268.71
2022-12-16T10:12:20.000Z,268.59
2022-12-16T10:13:44.000Z,268.59
2022-12-16T10:15:47.000Z,268.71
2022-12-16T10:17:12.000Z,268.59
2022-12-16T10:19:15.000Z,268.59
2022-12-16T10:20:40.000Z,268.77
2022-12-16T10:22:43.000Z,268.71
2022-12-16T10:24:08.000Z,268.65
2022-12-16T10:26:11.000Z,268.65
2022-12-16T10:27:35.000Z,268.71
2022-12-16T10:29:39.000Z,268.71
2022-12-16T10:31:03.000Z,268.77
2022-12-16T10:33:07.000Z,268.84
2022-12-16T10:35:56.000Z,269.02
2022-12-16T10:37:21.000Z,268.9
2022-12-16T10:39:24.000Z,268.84
2022-12-16T10:40:48.000Z,268.9
2022-12-16T10:42:52.000Z,268.96
2022-12-16T10:44:17.000Z,268.96
2022-12-16T10:46:21.000Z,268.96
2022-12-16T10:47:45.000Z,269.09
2022-12-16T10:49:49.000Z,269.15
2022-12-16T10:51:17.000Z,269.15
2022-12-16T10:53:20.000Z,269.21
2022-12-16T10:54:45.000Z,269.21
2022-12-16T10:56:48.000Z,269.27
2022-12-16T10:58:13.000Z,269.4
2022-12-16T11:00:17.000Z,269.34
2022-12-16T11:01:41.000Z,269.4
2022-12-16T11:03:45.000Z,269.46
2022-12-16T11:05:09.000Z,269.52
2022-12-16T11:07:13.000Z,269.52
2022-12-16T11:08:37.000Z,269.52
2022-12-16T11:10:41.000Z,269.59
2022-12-16T11:13:30.000Z,269.77
2022-12-16T11:14:55.000Z,269.71
2022-12-16T11:17:30.000Z,269.71
2022-12-16T11:18:54.000Z,269.71
2022-12-16T11:20:57.000Z,269.77
2022-12-16T11:22:27.000Z,269.84
2022-12-16T11:24:31.000Z,269.84
2022-12-16T11:25:55.000Z,269.84
2022-12-16T11:27:59.000Z,269.84
2022-12-16T11:29:23.000Z,269.9
2022-12-16T11:31:26.000Z,269.84
2022-12-16T11:32:51.000Z,269.96
2022-12-16T11:34:55.000Z,269.96
2022-12-16T11:36:19.000Z,270.02
2022-12-16T11:38:22.000Z,269.96
2022-12-16T11:39:47.000Z,269.96
2022-12-16T11:41:50.000Z,269.96
2022-12-16T11:43:15.000Z,269.9
2022-12-16T11:45:18.000Z,269.96
2022-12-16T11:46:43.000Z,269.96
2022-12-16T11:48:46.000Z,270.09
2022-12-16T11:51:35.000Z,270.09
2022-12-16T11:53:00.000Z,270.09
2022-12-16T11:55:03.000Z,270.09
2022-12-16T11:56:28.000Z,270.09
2022-12-16T11:58:31.000Z,270.15
2022-12-16T11:59:56.000Z,270.15
2022-12-16T12:01:59.000Z,270.21
2022-12-16T12:03:24.000Z,270.34
2022-12-16T12:05:27.000Z,270.27
2022-12-16T12:06:52.000Z,270.21
2022-12-16T12:08:55.000Z,270.21
2022-12-16T12:10:19.000Z,270.21
2022-12-16T12:12:23.000Z,270.21
2022-12-16T12:13:47.000Z,270.27
2022-12-16T12:15:51.000Z,270.27
2022-12-16T12:17:16.000Z,270.27
2022-12-16T12:19:19.000Z,270.21
2022-12-16T12:20:44.000Z,270.27
2022-12-16T12:22:47.000Z,270.34
2022-12-16T12:24:12.000Z,270.34
2022-12-16T12:26:15.000Z,270.21
2022-12-16T12:29:04.000Z,270.15
2022-12-16T12:30:29.000Z,270.21
2022-12-16T12:32:32.000Z,270.21
2022-12-16T12:33:57.000Z,270.21
2022-12-16T12:36:00.000Z,270.21
2022-12-16T12:37:24.000Z,270.21
2022-12-16T12:39:28.000Z,270.21
2022-12-16T12:40:52.000Z,270.21
2022-12-16T12:42:56.000Z,270.27
2022-12-16T12:44:20.000Z,270.34
2022-12-16T12:46:26.000Z,270.21
2022-12-16T12:47:50.000Z,270.15
2022-12-16T12:49:54.000Z,270.21
2022-12-16T12:51:18.000Z,270.21
2022-12-16T12:53:21.000Z,270.21
2022-12-16T12:54:46.000Z,270.21
2022-12-16T12:56:49.000Z,270.27
2022-12-16T12:58:14.000Z,270.34
2022-12-16T13:00:17.000Z,270.4
2022-12-16T13:01:42.000Z,270.4
2022-12-16T13:03:46.000Z,270.4
2022-12-16T13:06:35.000Z,270.34
2022-12-16T13:07:59.000Z,270.34
2022-12-16T13:10:03.000Z,270.34
2022-12-16T13:11:27.000Z,270.34
2022-12-16T13:13:36.000Z,270.27
2022-12-16T13:15:01.000Z,270.27
2022-12-16T13:17:04.000Z,270.34
2022-12-16T13:18:29.000Z,270.34
2022-12-16T13:20:32.000Z,270.46
2022-12-16T13:21:57.000Z,270.4
2022-12-16T13:24:00.000Z,270.4
2022-12-16T13:25:24.000Z,270.34
2022-12-16T13:27:28.000Z,270.27
2022-12-16T13:28:52.000Z,270.27
2022-12-16T13:30:56.000Z,270.27
2022-12-16T13:32:20.000Z,270.34
2022-12-16T13:34:23.000Z,270.27
2022-12-16T13:35:48.000Z,270.21
2022-12-16T13:37:51.000Z,270.15
2022-12-16T13:39:16.000Z,270.15
2022-12-16T13:41:19.000Z,270.15
2022-12-16T13:44:08.000Z,270.27
2022-12-16T13:45:33.000Z,270.27
2022-12-16T13:47:36.000Z,270.34
2022-12-16T13:49:01.000Z,270.34
2022-12-16T13:51:04.000Z,270.34
2022-12-16T13:52:28.000Z,270.4
2022-12-16T13:54:32.000Z,270.4
2022-12-16T13:55:56.000Z,270.34
2022-12-16T13:58:00.000Z,270.4
2022-12-16T13:59:24.000Z,270.34
2022-12-16T14:01:28.000Z,270.34
2022-12-16T14:02:52.000Z,270.34
2022-12-16T14:06:30.000Z,270.34
2022-12-16T14:07:04.000Z,270.34
2022-12-16T14:08:28.000Z,270.34
2022-12-16T14:10:32.000Z,270.34
2022-12-16T14:11:56.000Z,270.34
2022-12-16T14:13:59.000Z,270.34
2022-12-16T14:15:24.000Z,270.27
2022-12-16T14:17:27.000Z,270.34
2022-12-16T14:18:52.000Z,270.34
2022-12-16T14:20:55.000Z,270.27
2022-12-16T14:23:38.000Z,270.21
2022-12-16T14:25:19.000Z,270.15
2022-12-16T14:27:29.000Z,270.15
2022-12-16T14:28:53.000Z,270.09
2022-12-16T14:30:57.000Z,270.09
2022-12-16T14:32:21.000Z,270.09
2022-12-16T14:34:25.000Z,270.09
2022-12-16T14:35:49.000Z,270.02
2022-12-16T14:37:52.000Z,269.96
2022-12-16T14:39:17.000Z,269.96
2022-12-16T14:41:20.000Z,269.9
2022-12-16T14:42:45.000Z,269.9
2022-12-16T14:44:48.000Z,269.84
2022-12-16T14:46:12.000Z,269.77
2022-12-16T14:48:16.000Z,269.71
2022-12-16T14:49:40.000Z,269.71
2022-12-16T14:51:44.000Z,269.65
2022-12-16T14:53:08.000Z,269.65
2022-12-16T14:55:12.000Z,269.59
2022-12-16T14:56:36.000Z,269.52
2022-12-16T14:58:40.000Z,269.52
2022-12-16T15:03:01.000Z,269.4
2022-12-16T15:03:35.000Z,269.4
2022-12-16T15:05:01.000Z,269.4
2022-12-16T15:07:04.000Z,269.34
2022-12-16T15:08:29.000Z,269.27
2022-12-16T15:10:33.000Z,269.21
2022-12-16T15:11:57.000Z,269.21
2022-12-16T15:14:01.000Z,269.15
2022-12-16T15:15:26.000Z,269.15
2022-12-16T15:17:29.000Z,269.15
2022-12-16T15:18:54.000Z,269.15
2022-12-16T15:20:58.000Z,269.09
2022-12-16T15:22:22.000Z,269.09
2022-12-16T15:24:26.000Z,268.96
2022-12-16T15:25:50.000Z,268.96
2022-12-16T15:27:54.000Z,268.9
2022-12-16T15:29:18.000Z,268.84
2022-12-16T15:31:21.000Z,268.77
2022-12-16T15:32:46.000Z,268.77
2022-12-16T15:34:50.000Z,268.71
2022-12-16T15:36:14.000Z,268.65
2022-12-16T15:38:17.000Z,268.59
2022-12-16T15:41:01.000Z,268.52
2022-12-16T15:42:25.000Z,268.52
2022-12-16T15:44:29.000Z,268.46
2022-12-16T15:45:53.000Z,268.4
2022-12-16T15:47:57.000Z,268.34
2022-12-16T15:49:21.000Z,268.27
2022-12-16T15:51:25.000Z,268.27
2022-12-16T15:52:49.000Z,268.27
2022-12-16T15:54:52.000Z,268.21
2022-12-16T15:56:17.000Z,268.15
2022-12-16T15:58:20.000Z,268.15
2022-12-16T15:59:45.000Z,268.09
2022-12-16T16:01:48.000Z,268.02
2022-12-16T16:03:13.000Z,268.02
2022-12-16T16:05:17.000Z,267.96
2022-12-16T16:06:41.000Z,267.9
2022-12-16T16:08:45.000Z,267.84
2022-12-16T16:10:09.000Z,267.84
2022-12-16T16:12:12.000Z,267.71
2022-12-16T16:13:37.000Z,267.65
2022-12-16T16:15:40.000Z,267.59
2022-12-16T16:18:30.000Z,267.46
2022-12-16T16:19:54.000Z,267.46
2022-12-16T16:22:04.000Z,267.4
2022-12-16T16:23:29.000Z,267.4
2022-12-16T16:25:33.000Z,267.27
2022-12-16T16:26:57.000Z,267.27
2022-12-16T16:29:01.000Z,267.15
2022-12-16T16:30:25.000Z,267.15
2022-12-16T16:32:28.000Z,267.15
2022-12-16T16:33:53.000Z,267.15
2022-12-16T16:35:56.000Z,267.15
2022-12-16T16:37:21.000Z,267.09
2022-12-16T16:39:24.000Z,266.96
2022-12-16T16:40:48.000Z,266.96
2022-12-16T16:42:52.000Z,266.96
2022-12-16T16:44:16.000Z,266.84
2022-12-16T16:46:21.000Z,266.77
2022-12-16T16:47:46.000Z,266.71
2022-12-16T16:49:49.000Z,266.71
2022-12-16T16:51:14.000Z,266.65
2022-12-16T16:53:17.000Z,266.59
2022-12-16T16:56:06.000Z,266.52
2022-12-16T16:57:31.000Z,266.52
2022-12-16T16:59:34.000Z,266.52
2022-12-16T17:00:59.000Z,266.46
2022-12-16T17:03:02.000Z,266.46
2022-12-16T17:04:27.000Z,266.52
2022-12-16T17:06:30.000Z,266.46
2022-12-16T17:07:55.000Z,266.34
2022-12-16T17:09:58.000Z,266.34
2022-12-16T17:11:23.000Z,266.27
2022-12-16T17:13:26.000Z,266.21
2022-12-16T17:14:51.000Z,266.15
2022-12-16T17:16:54.000Z,266.15
2022-12-16T17:18:18.000Z,266.09
2022-12-16T17:20:22.000Z,266.02
2022-12-16T17:21:46.000Z,265.96
2022-12-16T17:23:50.000Z,265.96
2022-12-16T17:25:14.000Z,266.02
2022-12-16T17:27:18.000Z,266.02
2022-12-16T17:28:42.000Z,265.96
2022-12-16T17:30:45.000Z,265.96
2022-12-16T17:33:35.000Z,265.9
2022-12-16T17:35:00.000Z,265.96
2022-12-16T17:37:03.000Z,265.9
2022-12-16T17:38:28.000Z,265.84
2022-12-16T17:40:31.000Z,265.77
2022-12-16T17:41:55.000Z,265.71
2022-12-16T17:43:59.000Z,265.71
2022-12-16T17:45:23.000Z,265.71
2022-12-16T17:47:27.000Z,265.77
2022-12-16T17:48:51.000Z,265.77
2022-12-16T17:50:54.000Z,265.65
2022-12-16T17:52:19.000Z,265.59
2022-12-16T17:54:22.000Z,265.59
2022-12-16T17:55:51.000Z,265.59
2022-12-16T17:57:55.000Z,265.46
2022-12-16T17:59:19.000Z,265.46
2022-12-16T18:01:23.000Z,265.46
2022-12-16T18:02:47.000Z,265.4
2022-12-16T18:04:51.000Z,265.34
2022-12-16T18:06:15.000Z,265.4
2022-12-16T18:08:19.000Z,265.34
2022-12-16T18:11:08.000Z,265.34
2022-12-16T18:12:33.000Z,265.34
2022-12-16T18:14:36.000Z,265.34
2022-12-16T18:16:01.000Z,265.34
2022-12-16T18:18:04.000Z,265.34
2022-12-16T18:19:29.000Z,265.34
2022-12-16T18:21:32.000Z,265.4
2022-12-16T18:22:56.000Z,265.4
2022-12-16T18:25:00.000Z,265.46
2022-12-16T18:26:24.000Z,265.52
2022-12-16T18:28:28.000Z,265.52
2022-12-16T18:29:52.000Z,265.59
2022-12-16T18:31:55.000Z,265.59
2022-12-16T18:33:20.000Z,265.65
2022-12-16T18:35:23.000Z,265.59
2022-12-16T18:36:48.000Z,265.65
2022-12-16T18:38:51.000Z,265.65
2022-12-16T18:40:16.000Z,265.71
2022-12-16T18:42:19.000Z,265.65
2022-12-16T18:43:43.000Z,265.71
2022-12-16T18:45:47.000Z,265.71
2022-12-16T18:48:36.000Z,265.77
2022-12-16T18:50:00.000Z,265.84
2022-12-16T18:52:04.000Z,265.77
2022-12-16T18:53:28.000Z,265.77
2022-12-16T18:55:32.000Z,265.84
2022-12-16T18:56:56.000Z,265.84
2022-12-16T18:59:00.000Z,265.84
2022-12-16T19:00:24.000Z,265.9
2022-12-16T19:02:28.000Z,265.9
2022-12-16T19:03:53.000Z,265.9
2022-12-16T19:05:56.000Z,265.9
2022-12-16T19:07:20.000Z,265.84
2022-12-16T19:09:24.000Z,265.9
2022-12-16T19:10:48.000Z,265.96
2022-12-16T19:12:52.000Z,265.9
2022-12-16T19:14:16.000Z,265.96
2022-12-16T19:16:19.000Z,266.02
2022-12-16T19:17:44.000Z,265.96
2022-12-16T19:19:47.000Z,266.02
2022-12-16T19:21:12.000Z,266.09
2022-12-16T19:23:15.000Z,266.09
2022-12-16T19:26:05.000Z,266.09
2022-12-16T19:27:29.000Z,266.09
2022-12-16T19:29:32.000Z,266.15
2022-12-16T19:30:57.000Z,266.21
2022-12-16T19:33:00.000Z,266.15
2022-12-16T19:34:25.000Z,266.15
2022-12-16T19:36:28.000Z,266.27
2022-12-16T19:37:52.000Z,266.27
2022-12-16T19:39:58.000Z,266.27
2022-12-16T19:41:22.000Z,266.27
2022-12-16T19:43:26.000Z,266.34
2022-12-16T19:44:50.000Z,266.34
2022-12-16T19:46:57.000Z,266.34
2022-12-16T19:48:21.000Z,266.34
2022-12-16T19:50:25.000Z,266.46
2022-12-16T19:51:49.000Z,266.46
2022-12-16T19:53:53.000Z,266.4
2022-12-16T19:55:18.000Z,266.46
2022-12-16T19:57:22.000Z,266.52
2022-12-16T19:58:46.000Z,266.52
2022-12-16T20:00:50.000Z,266.4
2022-12-16T20:03:39.000Z,266.52
2022-12-16T20:05:03.000Z,266.52
2022-12-16T20:07:07.000Z,266.52
2022-12-16T20:08:31.000Z,266.59
2022-12-16T20:10:35.000Z,266.52
2022-12-16T20:11:59.000Z,266.52
2022-12-16T20:14:03.000Z,266.65
2022-12-16T20:15:27.000Z,266.59
2022-12-16T20:17:30.000Z,266.52
2022-12-16T20:18:55.000Z,266.52
2022-12-16T20:20:58.000Z,266.52
2022-12-16T20:22:23.000Z,266.65
2022-12-16T20:24:26.000Z,266.65
2022-12-16T20:25:51.000Z,266.59
2022-12-16T20:27:58.000Z,266.71
2022-12-16T20:29:22.000Z,266.77
2022-12-16T20:31:26.000Z,266.77
2022-12-16T20:32:50.000Z,266.71
2022-12-16T20:34:57.000Z,266.71
2022-12-16T20:36:21.000Z,266.84
2022-12-16T20:38:25.000Z,266.77
2022-12-16T20:41:14.000Z,266.71
2022-12-16T20:42:39.000Z,266.84
2022-12-16T20:44:42.000Z,266.77
2022-12-16T20:46:07.000Z,266.9
2022-12-16T20:48:10.000Z,266.84
2022-12-16T20:49:35.000Z,266.84
2022-12-16T20:51:38.000Z,266.77
2022-12-16T20:53:03.000Z,266.84
2022-12-16T20:55:06.000Z,266.84
2022-12-16T20:56:31.000Z,266.9
2022-12-16T20:58:35.000Z,266.84
2022-12-16T20:59:59.000Z,266.84
2022-12-16T21:02:03.000Z,266.84
2022-12-16T21:23:57.000Z,267.15
2022-12-16T21:25:21.000Z,267.15
2022-12-16T21:27:26.000Z,267.09
2022-12-16T21:28:50.000Z,267.21
2022-12-16T21:30:57.000Z,267.21
2022-12-16T21:32:22.000Z,267.34
2022-12-16T21:34:25.000Z,267.21
2022-12-16T21:35:49.000Z,267.21
2022-12-16T21:37:53.000Z,267.4
2022-12-16T21:39:18.000Z,267.52
2022-12-16T21:41:22.000Z,267.46
2022-12-16T21:42:46.000Z,267.46
2022-12-16T21:44:50.000Z,267.52
2022-12-16T21:46:14.000Z,267.59
2022-12-16T21:48:17.000Z,267.65
2022-12-16T21:49:42.000Z,267.71
2022-12-16T21:51:45.000Z,267.59
2022-12-16T21:53:10.000Z,267.52
2022-12-16T21:55:13.000Z,267.65
2022-12-16T21:56:38.000Z,267.59
2022-12-16T21:58:41.000Z,267.52
2022-12-16T22:01:30.000Z,267.52
2022-12-16T22:02:55.000Z,267.52
2022-12-16T22:04:58.000Z,267.65
2022-12-16T22:06:23.000Z,267.65
2022-12-16T22:08:26.000Z,267.59
2022-12-16T22:09:51.000Z,267.52
2022-12-16T22:11:57.000Z,267.46
2022-12-16T22:13:22.000Z,267.52
2022-12-16T22:15:25.000Z,267.52
2022-12-16T22:16:49.000Z,267.52
2022-12-16T22:18:53.000Z,267.46
2022-12-16T22:20:18.000Z,267.46
2022-12-16T22:22:21.000Z,267.59
2022-12-16T22:23:46.000Z,267.65
2022-12-16T22:25:49.000Z,267.59
2022-12-16T22:27:15.000Z,267.59
2022-12-16T22:29:18.000Z,267.52
2022-12-16T22:30:43.000Z,267.52
2022-12-16T22:32:46.000Z,267.59
2022-12-16T22:34:11.000Z,267.52
2022-12-16T22:36:14.000Z,267.59
2022-12-16T22:39:03.000Z,267.65
2022-12-16T22:40:28.000Z,267.65
2022-12-16T22:42:31.000Z,267.65